createdAt,value
2018-08-22T00:02:24.479Z,100620.00
2018-08-22T00:04:51.998Z,100619.00
2018-08-22T00:07:19.708Z,100608.00
2018-08-22T00:09:47.231Z,100609.00
2018-08-22T00:12:14.780Z,100608.00
2018-08-22T00:14:42.290Z,100597.00
2018-08-22T00:17:09.799Z,100588.00
2018-08-22T00:19:37.326Z,100595.00
2018-08-22T00:22:04.847Z,100601.00
2018-08-22T00:24:32.374Z,100606.00
2018-08-22T00:26:59.879Z,100606.00
2018-08-22T00:29:27.425Z,100612.00
2018-08-22T00:31:54.939Z,100597.00
2018-08-22T00:34:22.447Z,100598.00
2018-08-22T00:36:49.986Z,100599.00
2018-08-22T00:39:17.502Z,100599.00
2018-08-22T00:41:45.021Z,100595.00
2018-08-22T00:44:12.539Z,100597.00
2018-08-22T00:46:40.047Z,100589.00
2018-08-22T00:49:07.574Z,100588.00
2018-08-22T00:51:35.079Z,100590.00
2018-08-22T00:54:02.579Z,100580.00
2018-08-22T00:56:30.107Z,100577.00
2018-08-22T00:58:57.619Z,100578.00
2018-08-22T01:01:25.155Z,100588.00
2018-08-22T01:03:52.663Z,100591.00
2018-08-22T01:06:20.175Z,100586.00
2018-08-22T01:08:47.687Z,100587.00
2018-08-22T01:11:15.210Z,100576.00
2018-08-22T01:13:42.731Z,100583.00
2018-08-22T01:16:10.244Z,100575.00
2018-08-22T01:18:37.766Z,100575.00
2018-08-22T01:21:05.496Z,100575.00
2018-08-22T01:23:33.022Z,100571.00
2018-08-22T01:26:00.574Z,100567.00
2018-08-22T01:28:28.091Z,100562.00
2018-08-22T01:30:55.614Z,100572.00
2018-08-22T01:33:23.127Z,100569.00
2018-08-22T01:35:50.639Z,100574.00
2018-08-22T01:38:18.147Z,100574.00
2018-08-22T01:40:45.671Z,100586.00
2018-08-22T01:43:13.194Z,100582.00
2018-08-22T01:45:40.703Z,100574.00
2018-08-22T01:48:08.221Z,100569.00
2018-08-22T01:50:35.734Z,100581.00
2018-08-22T01:53:03.279Z,100569.00
2018-08-22T01:55:30.870Z,100571.00
2018-08-22T01:57:58.391Z,100565.00
2018-08-22T02:00:25.896Z,100565.00
2018-08-22T02:02:53.435Z,100566.00
2018-08-22T02:05:20.972Z,100565.00
2018-08-22T02:07:48.502Z,100564.00
2018-08-22T02:10:16.036Z,100567.00
2018-08-22T02:12:43.562Z,100567.00
2018-08-22T02:15:11.104Z,100564.00
2018-08-22T02:17:38.630Z,100550.00
2018-08-22T02:20:06.184Z,100561.00
2018-08-22T02:22:33.730Z,100554.00
2018-08-22T02:25:01.438Z,100554.00
2018-08-22T02:27:28.930Z,100551.00
2018-08-22T02:29:56.469Z,100548.00
2018-08-22T02:32:24.008Z,100547.00
2018-08-22T02:34:51.557Z,100543.00
2018-08-22T02:37:19.702Z,100549.00
2018-08-22T02:39:47.229Z,100552.00
2018-08-22T02:42:14.767Z,100547.00
2018-08-22T02:44:42.304Z,100546.00
2018-08-22T02:47:09.855Z,100537.00
2018-08-22T02:49:37.391Z,100535.00
2018-08-22T02:52:04.938Z,100541.00
2018-08-22T02:54:32.481Z,100533.00
2018-08-22T02:57:00.047Z,100535.00
2018-08-22T02:59:27.582Z,100537.00
2018-08-22T03:01:55.135Z,100540.00
2018-08-22T03:04:22.720Z,100536.00
2018-08-22T03:06:50.242Z,100532.00
2018-08-22T03:09:17.776Z,100528.00
2018-08-22T03:11:45.298Z,100533.00
2018-08-22T03:14:12.826Z,100521.00
2018-08-22T03:16:40.375Z,100527.00
2018-08-22T03:19:07.907Z,100535.00
2018-08-22T03:21:35.440Z,100537.00
2018-08-22T03:24:02.975Z,100534.00
2018-08-22T03:26:30.528Z,100536.00
2018-08-22T03:28:58.067Z,100529.00
2018-08-22T03:31:25.587Z,100531.00
2018-08-22T03:33:53.137Z,100540.00
2018-08-22T03:36:20.692Z,100536.00
2018-08-22T03:38:48.263Z,100535.00
2018-08-22T03:41:15.802Z,100531.00
2018-08-22T03:43:43.521Z,100540.00
2018-08-22T03:46:11.047Z,100538.00
2018-08-22T03:48:38.584Z,100536.00
2018-08-22T03:51:06.137Z,100540.00
2018-08-22T03:53:33.672Z,100544.00
2018-08-22T03:56:01.199Z,100542.00
2018-08-22T03:58:28.734Z,100536.00
2018-08-22T04:00:56.263Z,100532.00
2018-08-22T04:03:23.775Z,100534.00
2018-08-22T04:05:51.299Z,100534.00
2018-08-22T04:08:18.818Z,100533.00
2018-08-22T04:10:46.332Z,100538.00
2018-08-22T04:13:13.850Z,100543.00
2018-08-22T04:15:41.370Z,100531.00
2018-08-22T04:18:08.880Z,100541.00
2018-08-22T04:20:36.390Z,100538.00
2018-08-22T04:23:04.202Z,100541.00
2018-08-22T04:25:31.721Z,100544.00
2018-08-22T04:27:59.238Z,100543.00
2018-08-22T04:30:26.758Z,100554.00
2018-08-22T04:32:54.279Z,100536.00
2018-08-22T04:35:21.844Z,100539.00
2018-08-22T04:37:49.634Z,100533.00
2018-08-22T04:40:17.199Z,100532.00
2018-08-22T04:42:44.755Z,100528.00
2018-08-22T04:45:12.271Z,100535.00
2018-08-22T04:47:39.799Z,100533.00
2018-08-22T04:50:07.435Z,100541.00
2018-08-22T04:52:34.970Z,100529.00
2018-08-22T04:55:02.491Z,100539.00
2018-08-22T04:57:30.016Z,100535.00
2018-08-22T04:59:57.522Z,100536.00
2018-08-22T05:02:25.064Z,100540.00
2018-08-22T05:04:52.588Z,100542.00
2018-08-22T05:07:20.099Z,100534.00
2018-08-22T05:09:47.611Z,100533.00
2018-08-22T05:12:15.135Z,100533.00
2018-08-22T05:14:42.686Z,100530.00
2018-08-22T05:17:10.220Z,100533.00
2018-08-22T05:19:37.736Z,100531.00
2018-08-22T05:22:05.246Z,100535.00
2018-08-22T05:24:32.772Z,100545.00
2018-08-22T05:27:00.304Z,100537.00
2018-08-22T05:29:27.890Z,100537.00
2018-08-22T05:31:57.508Z,100538.00
2018-08-22T05:34:25.562Z,100535.00
2018-08-22T05:36:53.112Z,100536.00
2018-08-22T05:39:20.622Z,100534.00
2018-08-22T05:41:48.147Z,100531.00
2018-08-22T05:44:15.671Z,100533.00
2018-08-22T05:46:43.194Z,100534.00
2018-08-22T05:49:10.754Z,100528.00
2018-08-22T05:51:38.269Z,100528.00
2018-08-22T05:54:05.829Z,100533.00
2018-08-22T05:56:33.360Z,100544.00
2018-08-22T05:59:00.870Z,100537.00
2018-08-22T06:01:28.413Z,100537.00
2018-08-22T06:03:55.930Z,100531.00
2018-08-22T06:06:23.468Z,100530.00
2018-08-22T06:08:50.986Z,100545.00
2018-08-22T06:11:18.505Z,100542.00
2018-08-22T06:13:46.027Z,100541.00
2018-08-22T06:16:13.554Z,100537.00
2018-08-22T06:18:41.094Z,100543.00
2018-08-22T06:21:08.602Z,100543.00
2018-08-22T06:23:36.126Z,100537.00
2018-08-22T06:26:03.655Z,100540.00
2018-08-22T06:28:31.178Z,100539.00
2018-08-22T06:30:58.683Z,100530.00
2018-08-22T06:33:26.218Z,100537.00
2018-08-22T06:35:53.745Z,100544.00
2018-08-22T06:38:21.272Z,100538.00
2018-08-22T06:40:48.786Z,100537.00
2018-08-22T06:43:16.311Z,100537.00
2018-08-22T06:45:43.835Z,100537.00
2018-08-22T06:48:11.354Z,100533.00
2018-08-22T06:50:39.012Z,100523.00
2018-08-22T06:53:06.662Z,100516.00
2018-08-22T06:55:34.167Z,100528.00
2018-08-22T06:58:01.679Z,100524.00
2018-08-22T07:00:29.195Z,100526.00
2018-08-22T07:02:56.732Z,100513.00
2018-08-22T07:05:24.252Z,100519.00
2018-08-22T07:07:51.789Z,100515.00
2018-08-22T07:10:19.324Z,100515.00
2018-08-22T07:12:46.839Z,100519.00
2018-08-22T07:15:14.347Z,100521.00
2018-08-22T07:17:41.876Z,100524.00
2018-08-22T07:20:09.409Z,100515.00
2018-08-22T07:22:36.922Z,100509.00
2018-08-22T07:25:04.512Z,100518.00
2018-08-22T07:27:32.060Z,100511.00
2018-08-22T07:29:59.615Z,100517.00
2018-08-22T07:32:27.156Z,100510.00
2018-08-22T07:34:54.667Z,100512.00
2018-08-22T07:37:22.194Z,100513.00
2018-08-22T07:39:49.702Z,100510.00
2018-08-22T07:42:17.207Z,100508.00
2018-08-22T07:44:44.734Z,100509.00
2018-08-22T07:47:12.283Z,100511.00
2018-08-22T07:49:39.788Z,100503.00
2018-08-22T07:52:07.609Z,100501.00
2018-08-22T07:54:39.767Z,100500.00
2018-08-22T07:57:07.648Z,100501.00
2018-08-22T07:59:35.191Z,100503.00
2018-08-22T08:02:02.829Z,100500.00
2018-08-22T08:04:30.273Z,100504.00
2018-08-22T08:06:57.836Z,100511.00
2018-08-22T08:09:25.380Z,100506.00
2018-08-22T08:11:52.879Z,100504.00
2018-08-22T08:14:20.392Z,100506.00
2018-08-22T08:16:47.919Z,100506.00
2018-08-22T08:19:15.446Z,100504.00
2018-08-22T08:21:42.961Z,100501.00
2018-08-22T08:24:10.507Z,100498.00
2018-08-22T08:26:38.026Z,100497.00
2018-08-22T08:29:05.691Z,100493.00
2018-08-22T08:31:33.210Z,100488.00
2018-08-22T08:34:00.740Z,100489.00
2018-08-22T08:36:28.397Z,100484.00
2018-08-22T08:38:55.919Z,100477.00
2018-08-22T08:41:23.422Z,100481.00
2018-08-22T08:43:50.959Z,100475.00
2018-08-22T08:46:18.487Z,100481.00
2018-08-22T08:48:46.002Z,100473.00
2018-08-22T08:51:13.541Z,100472.00
2018-08-22T08:53:41.068Z,100464.00
2018-08-22T08:56:08.575Z,100463.00
2018-08-22T08:58:36.129Z,100453.00
2018-08-22T09:01:03.644Z,100452.00
2018-08-22T09:03:31.204Z,100454.00
2018-08-22T09:05:58.732Z,100457.00
2018-08-22T09:08:26.255Z,100451.00
2018-08-22T09:10:53.784Z,100434.00
2018-08-22T09:13:21.314Z,100442.00
2018-08-22T09:15:48.821Z,100444.00
2018-08-22T09:18:16.364Z,100447.00
2018-08-22T09:20:43.915Z,100434.00
2018-08-22T09:23:11.444Z,100436.00
2018-08-22T09:25:38.959Z,100433.00
2018-08-22T09:28:06.512Z,100438.00
2018-08-22T09:30:34.016Z,100437.00
2018-08-22T09:33:01.527Z,100429.00
2018-08-22T09:35:29.431Z,100430.00
2018-08-22T09:37:56.947Z,100420.00
2018-08-22T09:40:24.475Z,100423.00
2018-08-22T09:42:51.990Z,100417.00
2018-08-22T09:45:19.511Z,100421.00
2018-08-22T09:47:47.034Z,100412.00
2018-08-22T09:50:14.575Z,100414.00
2018-08-22T09:52:42.078Z,100417.00
2018-08-22T09:55:09.594Z,100410.00
2018-08-22T09:57:37.112Z,100417.00
2018-08-22T10:00:05.832Z,100408.00
2018-08-22T10:02:33.328Z,100408.00
2018-08-22T10:05:00.879Z,100410.00
2018-08-22T10:07:28.450Z,100412.00
2018-08-22T10:09:55.970Z,100406.00
2018-08-22T10:12:23.528Z,100407.00
2018-08-22T10:14:51.089Z,100402.00
2018-08-22T10:17:18.615Z,100408.00
2018-08-22T10:19:46.172Z,100404.00
2018-08-22T10:22:13.722Z,100415.00
2018-08-22T10:24:41.263Z,100406.00
2018-08-22T10:27:08.845Z,100399.00
2018-08-22T10:29:36.367Z,100399.00
2018-08-22T10:32:03.939Z,100390.00
2018-08-22T10:34:31.704Z,100385.00
2018-08-22T10:36:59.234Z,100384.00
2018-08-22T10:39:26.795Z,100389.00
2018-08-22T10:41:54.319Z,100391.00
2018-08-22T10:44:21.896Z,100386.00
2018-08-22T10:46:49.399Z,100384.00
2018-08-22T10:49:16.946Z,100392.00
2018-08-22T10:51:44.484Z,100383.00
2018-08-22T10:54:12.041Z,100387.00
2018-08-22T10:56:39.572Z,100382.00
2018-08-22T10:59:07.117Z,100378.00
2018-08-22T11:01:34.647Z,100379.00
2018-08-22T11:04:02.176Z,100371.00
2018-08-22T11:06:29.666Z,100371.00
2018-08-22T11:08:57.190Z,100364.00
2018-08-22T11:11:24.711Z,100359.00
2018-08-22T11:13:52.256Z,100361.00
2018-08-22T11:16:19.773Z,100355.00
2018-08-22T11:18:47.274Z,100345.00
2018-08-22T11:21:32.368Z,100352.00
2018-08-22T11:24:17.443Z,100355.00
2018-08-22T11:27:02.523Z,100352.00
2018-08-22T11:29:47.651Z,100345.00
2018-08-22T11:32:32.719Z,100349.00
2018-08-22T11:34:59.017Z,100353.00
2018-08-22T11:37:26.551Z,100338.00
2018-08-22T11:39:54.079Z,100330.00
2018-08-22T11:42:21.605Z,100339.00
2018-08-22T11:44:49.145Z,100333.00
2018-08-22T11:47:16.686Z,100330.00
2018-08-22T11:49:44.223Z,100330.00
2018-08-22T11:52:11.751Z,100339.00
2018-08-22T11:54:46.172Z,100331.00
2018-08-22T11:57:13.692Z,100333.00
2018-08-22T11:59:41.229Z,100326.00
2018-08-22T12:02:08.759Z,100322.00
2018-08-22T12:04:36.291Z,100326.00
2018-08-22T12:07:03.826Z,100325.00
2018-08-22T12:09:31.354Z,100325.00
2018-08-22T12:11:58.875Z,100340.00
2018-08-22T12:14:26.412Z,100340.00
2018-08-22T12:16:53.950Z,100336.00
2018-08-22T12:19:21.482Z,100325.00
2018-08-22T12:21:49.031Z,100337.00
2018-08-22T12:24:16.551Z,100338.00
2018-08-22T12:26:50.785Z,100335.00
2018-08-22T12:29:18.299Z,100323.00
2018-08-22T12:31:45.823Z,100325.00
2018-08-22T12:34:13.340Z,100317.00
2018-08-22T12:36:40.867Z,100311.00
2018-08-22T12:39:08.401Z,100313.00
2018-08-22T12:41:35.915Z,100306.00
2018-08-22T12:44:03.435Z,100303.00
2018-08-22T12:46:30.962Z,100296.00
2018-08-22T12:48:58.471Z,100294.00
2018-08-22T12:51:26.008Z,100293.00
2018-08-22T12:53:53.530Z,100298.00
2018-08-22T12:56:21.061Z,100290.00
2018-08-22T12:58:48.596Z,100291.00
2018-08-22T13:01:16.149Z,100290.00
2018-08-22T13:03:43.679Z,100288.00
2018-08-22T13:06:11.199Z,100281.00
2018-08-22T13:08:38.724Z,100277.00
2018-08-22T13:11:06.303Z,100278.00
2018-08-22T13:13:33.808Z,100277.00
2018-08-22T13:16:01.333Z,100272.00
2018-08-22T13:18:28.876Z,100253.00
2018-08-22T13:20:56.424Z,100260.00
2018-08-22T13:23:23.943Z,100253.00
2018-08-22T13:25:51.492Z,100257.00
2018-08-22T13:28:19.014Z,100263.00
2018-08-22T13:30:46.568Z,100258.00
2018-08-22T13:33:14.103Z,100261.00
2018-08-22T13:35:41.619Z,100252.00
2018-08-22T13:38:09.138Z,100254.00
2018-08-22T13:40:36.651Z,100253.00
2018-08-22T13:43:04.472Z,100253.00
2018-08-22T13:45:32.003Z,100256.00
2018-08-22T13:47:59.526Z,100244.00
2018-08-22T13:50:27.039Z,100245.00
2018-08-22T13:52:54.575Z,100240.00
2018-08-22T13:55:22.097Z,100240.00
2018-08-22T13:57:49.653Z,100239.00
2018-08-22T14:00:17.180Z,100244.00
2018-08-22T14:02:44.731Z,100242.00
2018-08-22T14:05:12.263Z,100244.00
2018-08-22T14:07:39.803Z,100245.00
2018-08-22T14:10:07.395Z,100236.00
2018-08-22T14:12:34.946Z,100242.00
2018-08-22T14:15:02.542Z,100245.00
2018-08-22T14:17:30.895Z,100237.00
2018-08-22T14:19:58.438Z,100241.00
2018-08-22T14:22:26.032Z,100234.00
2018-08-22T14:24:53.502Z,100230.00
2018-08-22T14:27:21.051Z,100235.00
2018-08-22T14:29:48.576Z,100229.00
2018-08-22T14:32:16.107Z,100227.00
2018-08-22T14:34:43.650Z,100219.00
2018-08-22T14:37:11.202Z,100222.00
2018-08-22T14:39:38.755Z,100218.00
2018-08-22T14:42:06.307Z,100217.00
2018-08-22T14:44:33.844Z,100221.00
2018-08-22T14:47:01.383Z,100226.00
2018-08-22T14:49:28.940Z,100216.00
2018-08-22T14:51:56.483Z,100217.00
2018-08-22T14:54:24.028Z,100220.00
2018-08-22T14:56:51.601Z,100203.00
2018-08-22T14:59:19.161Z,100203.00
2018-08-22T15:01:46.707Z,100200.00
2018-08-22T15:04:14.222Z,100198.00
2018-08-22T15:06:41.736Z,100201.00
2018-08-22T15:09:17.572Z,100193.00
2018-08-22T15:11:45.234Z,100190.00
2018-08-22T15:14:12.765Z,100193.00
2018-08-22T15:16:40.329Z,100198.00
2018-08-22T15:19:07.892Z,100187.00
2018-08-22T15:21:35.411Z,100194.00
2018-08-22T15:24:02.946Z,100186.00
2018-08-22T15:26:30.505Z,100184.00
2018-08-22T15:28:57.994Z,100177.00
2018-08-22T15:31:25.515Z,100180.00
2018-08-22T15:33:53.051Z,100181.00
2018-08-22T15:36:20.814Z,100180.00
2018-08-22T15:38:48.317Z,100170.00
2018-08-22T15:41:16.230Z,100164.00
2018-08-22T15:43:43.738Z,100162.00
2018-08-22T15:46:11.276Z,100159.00
2018-08-22T15:48:38.807Z,100164.00
2018-08-22T15:51:06.334Z,100163.00
2018-08-22T15:53:33.847Z,100161.00
2018-08-22T15:56:01.376Z,100154.00
2018-08-22T15:58:28.915Z,100154.00
2018-08-22T16:00:56.447Z,100151.00
2018-08-22T16:03:25.110Z,100148.00
2018-08-22T16:05:53.687Z,100146.00
2018-08-22T16:08:22.423Z,100143.00
2018-08-22T16:10:49.928Z,100146.00
2018-08-22T16:13:23.186Z,100147.00
2018-08-22T16:15:52.682Z,100142.00
2018-08-22T16:18:20.414Z,100139.00
2018-08-22T16:20:55.311Z,100138.00
2018-08-22T16:23:32.930Z,100134.00
2018-08-22T16:26:01.503Z,100130.00
2018-08-22T16:28:48.639Z,100131.00
2018-08-22T16:31:16.384Z,100122.00
2018-08-22T16:33:43.843Z,100112.00
2018-08-22T16:36:18.206Z,100116.00
2018-08-22T16:38:45.727Z,100119.00
2018-08-22T16:41:13.257Z,100114.00
2018-08-22T16:43:42.193Z,100115.00
2018-08-22T16:46:11.996Z,100114.00
2018-08-22T16:48:40.271Z,100114.00
2018-08-22T16:51:07.798Z,100110.00
2018-08-22T16:53:35.395Z,100113.00
2018-08-22T16:56:02.963Z,100118.00
2018-08-22T16:58:30.525Z,100120.00
2018-08-22T17:00:58.073Z,100122.00
2018-08-22T17:03:25.850Z,100116.00
2018-08-22T17:06:03.276Z,100120.00
2018-08-22T17:08:30.841Z,100112.00
2018-08-22T17:11:01.420Z,100116.00
2018-08-22T17:13:40.674Z,100116.00
2018-08-22T17:16:08.224Z,100117.00
2018-08-22T17:18:35.778Z,100117.00
2018-08-22T17:21:03.323Z,100114.00
2018-08-22T17:23:30.858Z,100115.00
2018-08-22T17:25:58.395Z,100114.00
2018-08-22T17:28:34.366Z,100112.00
2018-08-22T17:31:02.479Z,100108.00
2018-08-22T17:33:38.204Z,100109.00
2018-08-22T17:36:09.502Z,100107.00
2018-08-22T17:38:37.254Z,100110.00
2018-08-22T17:41:04.999Z,100113.00
2018-08-22T17:43:53.366Z,100106.00
2018-08-22T17:46:22.079Z,100113.00
2018-08-22T17:48:49.634Z,100116.00
2018-08-22T17:51:17.319Z,100115.00
2018-08-22T17:53:44.871Z,100113.00
2018-08-22T17:56:12.412Z,100121.00
2018-08-22T17:58:39.950Z,100116.00
2018-08-22T18:01:07.503Z,100124.00
2018-08-22T18:03:35.055Z,100125.00
2018-08-22T18:06:02.591Z,100121.00
2018-08-22T18:08:31.414Z,100121.00
2018-08-22T18:10:58.963Z,100126.00
2018-08-22T18:13:27.165Z,100126.00
2018-08-22T18:15:54.870Z,100133.00
2018-08-22T18:18:22.437Z,100135.00
2018-08-22T18:20:50.687Z,100130.00
2018-08-22T18:23:19.144Z,100131.00
2018-08-22T18:25:52.705Z,100133.00
2018-08-22T18:28:20.247Z,100139.00
2018-08-22T18:30:54.595Z,100138.00
2018-08-22T18:33:22.111Z,100137.00
2018-08-22T18:35:49.647Z,100142.00
2018-08-22T18:38:17.175Z,100134.00
2018-08-22T18:41:01.886Z,100143.00
2018-08-22T18:43:29.433Z,100137.00
2018-08-22T18:46:02.380Z,100135.00
2018-08-22T18:48:31.495Z,100153.00
2018-08-22T18:50:59.372Z,100138.00
2018-08-22T18:53:26.882Z,100150.00
2018-08-22T18:56:11.222Z,100147.00
2018-08-22T18:58:38.967Z,100142.00
2018-08-22T19:01:06.707Z,100147.00
2018-08-22T19:03:34.467Z,100146.00
2018-08-22T19:06:02.139Z,100145.00
2018-08-22T19:08:29.670Z,100142.00
2018-08-22T19:10:57.269Z,100150.00
2018-08-22T19:13:25.530Z,100138.00
2018-08-22T19:15:58.314Z,100146.00
2018-08-22T19:18:26.071Z,100143.00
2018-08-22T19:20:56.526Z,100138.00
2018-08-22T19:23:24.079Z,100147.00
2018-08-22T19:25:52.640Z,100139.00
2018-08-22T19:28:20.100Z,100137.00
2018-08-22T19:30:47.893Z,100135.00
2018-08-22T19:33:16.870Z,100138.00
2018-08-22T19:35:44.855Z,100143.00
2018-08-22T19:38:16.336Z,100145.00
2018-08-22T19:40:43.886Z,100138.00
2018-08-22T19:43:11.512Z,100144.00
2018-08-22T19:45:39.054Z,100135.00
2018-08-22T19:48:13.366Z,100129.00
2018-08-22T19:50:40.922Z,100134.00
2018-08-22T19:53:08.451Z,100134.00
2018-08-22T19:55:37.094Z,100135.00
2018-08-22T19:58:05.090Z,100141.00
2018-08-22T20:00:32.649Z,100133.00
2018-08-22T20:03:00.210Z,100143.00
2018-08-22T20:05:48.843Z,100145.00
2018-08-22T20:08:16.414Z,100139.00
2018-08-22T20:10:43.972Z,100143.00
2018-08-22T20:13:11.517Z,100143.00
2018-08-22T20:15:39.059Z,100138.00
2018-08-22T20:18:13.343Z,100134.00
2018-08-22T20:20:40.879Z,100128.00
2018-08-22T20:23:08.480Z,100130.00
2018-08-22T20:25:35.980Z,100130.00
2018-08-22T20:28:03.538Z,100133.00
2018-08-22T20:30:31.120Z,100131.00
2018-08-22T20:33:04.543Z,100132.00
2018-08-22T20:35:35.350Z,100127.00
2018-08-22T20:38:04.435Z,100132.00
2018-08-22T20:40:32.011Z,100119.00
2018-08-22T20:42:59.587Z,100123.00
2018-08-22T20:45:42.204Z,100125.00
2018-08-22T20:48:10.645Z,100123.00
2018-08-22T20:50:39.438Z,100123.00
2018-08-22T20:53:08.315Z,100123.00
2018-08-22T20:55:35.877Z,100126.00
2018-08-22T20:58:03.849Z,100119.00
2018-08-22T21:00:33.798Z,100116.00
2018-08-22T21:03:01.443Z,100116.00
2018-08-22T21:05:28.922Z,100125.00
2018-08-22T21:07:56.450Z,100115.00
2018-08-22T21:10:23.983Z,100123.00
2018-08-22T21:12:51.764Z,100128.00
2018-08-22T21:15:19.290Z,100115.00
2018-08-22T21:17:46.847Z,100123.00
2018-08-22T21:20:19.100Z,100120.00
2018-08-22T21:22:46.783Z,100125.00
2018-08-22T21:25:15.924Z,100124.00
2018-08-22T21:27:43.684Z,100130.00
2018-08-22T21:30:11.696Z,100122.00
2018-08-22T21:32:39.195Z,100125.00
2018-08-22T21:35:13.758Z,100116.00
2018-08-22T21:37:41.279Z,100124.00
2018-08-22T21:40:08.812Z,100121.00
2018-08-22T21:42:36.340Z,100116.00
2018-08-22T21:45:03.878Z,100114.00
2018-08-22T21:47:31.395Z,100110.00
2018-08-22T21:49:58.929Z,100115.00
2018-08-22T21:52:52.896Z,100115.00
2018-08-22T21:55:25.055Z,100112.00
2018-08-22T21:57:52.590Z,100106.00
2018-08-22T22:00:20.304Z,100115.00
2018-08-22T22:02:47.895Z,100112.00
2018-08-22T22:05:15.463Z,100112.00
2018-08-22T22:07:43.015Z,100107.00
2018-08-22T22:10:12.061Z,100101.00
2018-08-22T22:12:40.225Z,100103.00
2018-08-22T22:15:12.987Z,100105.00
2018-08-22T22:17:41.327Z,100103.00
2018-08-22T22:20:08.887Z,100099.00
2018-08-22T22:22:36.457Z,100108.00
2018-08-22T22:25:05.212Z,100098.00
2018-08-22T22:27:32.770Z,100096.00
2018-08-22T22:30:02.871Z,100090.00
2018-08-22T22:32:31.147Z,100101.00
2018-08-22T22:34:58.671Z,100100.00
2018-08-22T22:37:26.250Z,100102.00
2018-08-22T22:39:53.778Z,100099.00
2018-08-22T22:42:25.026Z,100097.00
2018-08-22T22:44:53.660Z,100088.00
2018-08-22T22:47:27.006Z,100082.00
2018-08-22T22:49:54.972Z,100087.00
2018-08-22T22:52:28.326Z,100089.00
2018-08-22T22:54:57.103Z,100078.00
2018-08-22T22:57:24.872Z,100074.00
2018-08-22T22:59:52.954Z,100069.00
2018-08-22T23:02:23.175Z,100074.00
2018-08-22T23:04:51.642Z,100079.00
2018-08-22T23:07:22.074Z,100081.00
2018-08-22T23:09:52.759Z,100067.00
2018-08-22T23:12:26.033Z,100073.00
2018-08-22T23:14:54.674Z,100073.00
2018-08-22T23:17:22.231Z,100074.00
2018-08-22T23:20:02.158Z,100068.00
2018-08-22T23:22:29.663Z,100061.00
2018-08-22T23:24:57.184Z,100060.00
2018-08-22T23:27:24.717Z,100062.00
2018-08-22T23:29:52.256Z,100046.00
2018-08-22T23:32:19.775Z,100051.00
2018-08-22T23:34:47.296Z,100054.00
2018-08-22T23:37:14.811Z,100050.00
2018-08-22T23:39:42.321Z,100057.00
2018-08-22T23:42:09.844Z,100051.00
2018-08-22T23:44:42.087Z,100048.00
2018-08-22T23:47:09.604Z,100052.00
2018-08-22T23:49:41.748Z,100045.00
2018-08-22T23:52:09.278Z,100040.00
2018-08-22T23:54:41.414Z,100044.00
2018-08-22T23:57:09.007Z,100030.00
2018-08-22T23:59:36.512Z,100034.00
